Edgemont, South Dakota
Current Conditions -  °F | °C
As of 12:53 AM on Thursday 29 Jan 2015 (Local Time) from KCUT Reporting Station
Clear Clear  
Wind Chill: 23°   Ceiling: Unl
Heat Index: 30°   Visibility: 10mi
Dew Point: 13°   Wind: 7mph
Humidity: 49%   Direction: NA
Pressure: 30.27"   Gusts: NA
Location:  43.3°N, 103.83°W
Report Text: KCUT 290753Z AUTO VRB06KT 10SM CLR M01/M11 A3027 RMK AO2 SLP257 T10111106
Loading
Personal Weather Stations






























Interactive Weather Map New forecast layout! Learn more

10-Day Weather Forecast

Advertisements
Track Severe Weather on mobile